Time;durP1;ratioP1;P1;durP2;ratioP2;P2;SDS_P1;SDS_P2;PMS_P1;PMS_P2;Temp;Humidity;BMP_temperature;BMP_pressure;BME280_temperature;BME280_humidity;BME280_pressure;Samples;Min_cycle;Max_cycle;Signal;HPM_P1;HPM_P2
2022/12/17 13:07:01;;;;;;;19.27;8.75;;;-2.80;99.90;;;;;;6161362;23;20016;-69
2022/12/17 13:09:28;;;;;;;21.15;9.45;;;-2.80;99.90;;;;;;6161263;23;20358;-68
2022/12/17 13:12:05;;;;;;;26.50;8.77;;;-2.70;99.90;;;;;;6159902;23;20006;-68
2022/12/17 13:14:45;;;;;;;25.42;10.15;;;-2.60;99.90;;;;;;6161762;23;20052;-70
2022/12/17 13:17:16;;;;;;;24.65;10.00;;;-2.60;99.90;;;;;;6161243;23;20386;-67
2022/12/17 13:20:04;;;;;;;20.48;9.40;;;-2.60;99.90;;;;;;6161300;23;20013;-66
2022/12/17 13:22:33;;;;;;;18.52;8.50;;;-2.60;99.90;;;;;;6161100;23;20006;-66
2022/12/17 13:25:18;;;;;;;18.15;8.52;;;-2.60;99.90;;;;;;6161138;23;20012;-66
2022/12/17 13:27:47;;;;;;;22.75;8.88;;;-2.60;99.90;;;;;;6161545;23;20037;-68
2022/12/17 13:30:21;;;;;;;18.10;9.27;;;-2.50;99.90;;;;;;6161108;23;20047;-68
2022/12/17 13:33:26;;;;;;;22.65;9.57;;;-2.50;99.90;;;;;;6160905;23;20052;-66
2022/12/17 13:36:03;;;;;;;22.15;9.65;;;-2.60;99.90;;;;;;6161014;23;20005;-66
2022/12/17 13:38:30;;;;;;;25.15;10.85;;;-2.50;99.90;;;;;;6161653;23;20005;-66
2022/12/17 13:41:13;;;;;;;21.70;10.63;;;-2.60;99.90;;;;;;6160902;23;20445;-66
2022/12/17 13:43:56;;;;;;;27.33;10.52;;;-2.50;99.90;;;;;;6161614;23;20010;-66
2022/12/17 13:46:36;;;;;;;20.88;8.55;;;-2.60;99.90;;;;;;6160747;23;20006;-66
2022/12/17 13:49:16;;;;;;;21.50;9.00;;;-2.60;99.90;;;;;;6161061;23;20084;-66
2022/12/17 13:51:44;;;;;;;18.67;8.43;;;-2.70;99.90;;;;;;6161068;23;20001;-66
2022/12/17 13:54:18;;;;;;;22.70;11.15;;;-2.70;99.90;;;;;;6161709;23;20081;-66
2022/12/17 13:56:46;;;;;;;34.30;15.70;;;-2.80;99.90;;;;;;6161524;23;20009;-66
2022/12/17 13:59:24;;;;;;;33.22;15.57;;;-2.80;99.90;;;;;;6160824;23;20002;-66
2022/12/17 14:01:54;;;;;;;29.02;12.68;;;-2.90;99.90;;;;;;6160793;23;20012;-66
2022/12/17 14:04:29;;;;;;;23.77;11.38;;;-3.00;99.90;;;;;;6160909;23;20429;-66
2022/12/17 14:07:04;;;;;;;27.63;12.63;;;-3.00;99.90;;;;;;6160714;23;20011;-66
2022/12/17 14:09:43;;;;;;;24.38;11.38;;;-3.10;99.90;;;;;;6159409;23;20076;-66
2022/12/17 14:12:23;;;;;;;22.25;11.48;;;-3.20;99.90;;;;;;6161186;23;20028;-66
2022/12/17 14:15:17;;;;;;;26.33;12.75;;;-3.20;99.90;;;;;;6160519;23;20002;-66
2022/12/17 14:17:47;;;;;;;27.48;12.45;;;-3.30;99.90;;;;;;6161055;23;20002;-66
2022/12/17 14:20:22;;;;;;;27.08;13.15;;;-3.40;99.90;;;;;;6160353;23;20022;-66
2022/12/17 14:22:59;;;;;;;26.17;12.57;;;-3.40;99.90;;;;;;6160751;23;20006;-66
2022/12/17 14:25:49;;;;;;;29.02;14.18;;;-3.50;99.90;;;;;;6161235;23;20002;-66
2022/12/17 14:28:30;;;;;;;32.75;14.27;;;-3.50;99.90;;;;;;6160489;23;20248;-66
2022/12/17 14:31:23;;;;;;;27.30;13.90;;;-3.60;99.90;;;;;;6161143;23;20012;-66
2022/12/17 14:34:09;;;;;;;29.75;14.95;;;-3.60;99.90;;;;;;6160777;23;20010;-66
2022/12/17 14:36:42;;;;;;;28.87;14.10;;;-3.70;99.90;;;;;;6160852;23;20005;-66
2022/12/17 14:39:15;;;;;;;35.58;16.67;;;-3.80;99.90;;;;;;6160451;23;20253;-66
2022/12/17 14:44:30;;;;;;;40.00;18.50;;;-4.00;99.90;;;;;;6160681;23;20040;-67
2022/12/17 14:47:18;;;;;;;41.25;16.83;;;-4.10;99.90;;;;;;6160147;23;20005;-67
2022/12/17 14:50:24;;;;;;;42.67;17.52;;;-4.10;99.90;;;;;;6160678;23;19998;-67
2022/12/17 14:52:54;;;;;;;40.25;15.27;;;-4.20;99.90;;;;;;6160282;23;20008;-67
2022/12/17 14:55:31;;;;;;;42.13;17.63;;;-4.30;99.90;;;;;;6158856;23;20006;-67
2022/12/17 14:58:13;;;;;;;35.47;17.55;;;-4.40;99.90;;;;;;6158895;23;20009;-67
2022/12/17 15:01:06;;;;;;;31.23;13.48;;;-4.50;99.90;;;;;;6160851;23;20001;-67
2022/12/17 15:03:39;;;;;;;41.20;16.95;;;-4.50;99.90;;;;;;6160354;23;20009;-66
2022/12/17 15:06:09;;;;;;;54.33;22.05;;;-4.60;99.90;;;;;;6160885;23;20012;-67
2022/12/17 15:08:41;;;;;;;45.08;18.95;;;-4.70;99.90;;;;;;6160770;23;20080;-67
2022/12/17 15:11:13;;;;;;;35.65;14.02;;;-4.80;99.90;;;;;;6160029;23;20010;-66
2022/12/17 15:13:41;;;;;;;32.22;12.40;;;-4.80;99.90;;;;;;6160262;23;19997;-67
2022/12/17 15:16:09;;;;;;;31.83;12.98;;;-4.80;99.90;;;;;;6160713;23;20393;-67
2022/12/17 15:18:37;;;;;;;21.20;9.73;;;-4.90;99.90;;;;;;6159740;23;20371;-67
2022/12/17 15:21:05;;;;;;;25.13;9.30;;;-4.90;99.90;;;;;;6159924;23;20413;-67
2022/12/17 15:23:33;;;;;;;28.73;10.85;;;-4.90;99.90;;;;;;6160833;23;20072;-68
2022/12/17 15:26:01;;;;;;;24.63;10.20;;;-4.90;99.90;;;;;;6159998;23;20025;-67
2022/12/17 15:28:29;;;;;;;25.83;8.32;;;-4.90;99.90;;;;;;6160581;23;20012;-70
2022/12/17 15:30:58;;;;;;;25.52;9.55;;;-4.90;99.90;;;;;;6158658;23;20025;-70
2022/12/17 15:33:25;;;;;;;24.27;10.80;;;-5.00;99.90;;;;;;6160417;23;19997;-70
2022/12/17 15:35:53;;;;;;;34.25;11.10;;;-5.00;99.90;;;;;;6159932;23;19998;-70
2022/12/17 15:38:20;;;;;;;32.63;11.90;;;-5.10;99.90;;;;;;6160649;23;20311;-70
2022/12/17 15:40:48;;;;;;;25.15;12.77;;;-5.20;99.90;;;;;;6160306;23;20001;-69
2022/12/17 15:43:16;;;;;;;34.30;13.18;;;-5.30;99.90;;;;;;6159996;23;20008;-69
2022/12/17 15:45:51;;;;;;;30.00;12.00;;;-5.40;99.90;;;;;;6159960;23;20009;-70
2022/12/17 15:48:22;;;;;;;40.28;13.45;;;-5.50;99.90;;;;;;6158602;23;20021;-73
2022/12/17 15:50:49;;;;;;;24.48;12.23;;;-5.50;99.90;;;;;;6159961;23;20006;-69
2022/12/17 15:53:17;;;;;;;31.42;9.52;;;-5.60;99.90;;;;;;6159937;23;20371;-70
2022/12/17 15:55:45;;;;;;;26.52;9.55;;;-5.60;99.90;;;;;;6160582;23;20001;-70
2022/12/17 15:58:13;;;;;;;30.13;8.80;;;-5.60;99.90;;;;;;6160686;23;20029;-70
2022/12/17 16:00:40;;;;;;;32.05;10.82;;;-5.60;99.90;;;;;;6160500;23;20002;-71
2022/12/17 16:03:08;;;;;;;67.00;20.25;;;-5.60;99.90;;;;;;6159926;23;20014;-73
2022/12/17 16:05:35;;;;;;;41.28;15.90;;;-5.70;99.90;;;;;;6160510;23;20006;-72
2022/12/17 16:08:03;;;;;;;32.25;11.63;;;-5.70;99.90;;;;;;6158532;23;20010;-71
2022/12/17 16:10:30;;;;;;;56.90;20.00;;;-5.80;99.90;;;;;;6159779;23;20248;-72
2022/12/17 16:12:58;;;;;;;49.85;16.55;;;-5.80;99.90;;;;;;6158506;23;20005;-72
2022/12/17 16:15:26;;;;;;;41.97;15.70;;;-5.80;99.90;;;;;;6159778;23;20025;-72
2022/12/17 16:17:54;;;;;;;49.17;15.18;;;-5.90;99.90;;;;;;6160092;23;20002;-69
2022/12/17 16:20:22;;;;;;;43.15;14.95;;;-5.90;99.90;;;;;;6159488;23;20248;-74
2022/12/17 16:22:49;;;;;;;34.65;13.02;;;-6.00;99.90;;;;;;6160084;23;20359;-70
2022/12/17 16:25:17;;;;;;;37.47;13.55;;;-6.00;99.90;;;;;;6159760;23;20001;-68
2022/12/17 16:27:46;;;;;;;31.25;12.57;;;-5.90;99.90;;;;;;6159690;23;20009;-68
2022/12/17 16:30:13;;;;;;;30.15;10.45;;;-5.80;99.90;;;;;;6159718;23;20005;-72
2022/12/17 16:32:41;;;;;;;25.40;8.85;;;-5.80;99.90;;;;;;6160345;23;20035;-79
2022/12/17 16:35:09;;;;;;;24.55;10.05;;;-5.90;99.90;;;;;;6161413;23;20028;-69
2022/12/17 16:37:36;;;;;;;30.88;9.95;;;-5.90;99.90;;;;;;6160553;23;20006;-69
2022/12/17 16:40:04;;;;;;;26.90;8.63;;;-5.90;99.90;;;;;;6161506;23;20001;-70
2022/12/17 16:42:35;;;;;;;20.60;8.65;;;-5.90;99.90;;;;;;6161863;23;20001;-70
2022/12/17 16:45:03;;;;;;;18.42;8.63;;;-5.90;99.90;;;;;;6162143;23;20005;-69
2022/12/17 16:47:30;;;;;;;24.90;9.30;;;-6.00;99.90;;;;;;6161221;23;20036;-69
2022/12/17 16:49:58;;;;;;;23.98;9.15;;;-6.00;99.90;;;;;;6162195;23;20076;-69
2022/12/17 16:52:26;;;;;;;20.80;8.82;;;-6.10;99.90;;;;;;6162062;23;20072;-69
2022/12/17 16:54:54;;;;;;;23.08;8.30;;;-6.10;99.90;;;;;;6161439;23;20008;-69
2022/12/17 16:57:21;;;;;;;27.95;9.25;;;-6.00;99.90;;;;;;6161328;23;20001;-69
2022/12/17 16:59:49;;;;;;;25.85;11.90;;;-6.00;99.90;;;;;;6161890;23;20266;-69
2022/12/17 17:02:17;;;;;;;26.95;9.88;;;-6.00;99.90;;;;;;6161826;23;20001;-69
2022/12/17 17:04:45;;;;;;;26.52;12.55;;;-6.00;99.90;;;;;;6159911;23;20005;-69
2022/12/17 17:07:12;;;;;;;23.05;10.68;;;-6.10;99.90;;;;;;6162166;23;20251;-69
2022/12/17 17:09:40;;;;;;;23.65;9.80;;;-6.10;99.90;;;;;;6161295;23;19997;-69
2022/12/17 17:12:10;;;;;;;30.00;10.07;;;-6.20;99.90;;;;;;6161576;23;20029;-69
2022/12/17 17:14:39;;;;;;;23.30;9.95;;;-6.20;99.90;;;;;;6161875;23;20002;-69
2022/12/17 17:17:06;;;;;;;28.13;9.68;;;-6.30;99.90;;;;;;6161133;23;20097;-69
2022/12/17 17:19:34;;;;;;;18.20;8.05;;;-6.40;99.90;;;;;;6161359;23;20052;-69
2022/12/17 17:22:01;;;;;;;23.00;9.27;;;-6.40;99.90;;;;;;6162022;23;20002;-69
2022/12/17 17:24:29;;;;;;;35.22;9.85;;;-6.40;99.90;;;;;;6161886;23;20009;-69
2022/12/17 17:26:56;;;;;;;58.90;17.67;;;-6.40;99.90;;;;;;6159660;23;20005;-69
2022/12/17 17:29:25;;;;;;;44.45;15.93;;;-6.50;99.90;;;;;;6161957;23;20044;-69
2022/12/17 17:31:53;;;;;;;26.50;8.35;;;-6.50;99.90;;;;;;6161056;23;20060;-69
2022/12/17 17:34:20;;;;;;;23.98;7.85;;;-6.60;99.90;;;;;;6160935;23;20008;-69
2022/12/17 17:36:47;;;;;;;19.83;7.57;;;-6.70;99.90;;;;;;6161103;23;20001;-69
2022/12/17 17:39:15;;;;;;;25.92;9.82;;;-6.80;99.90;;;;;;6161220;23;20006;-69
2022/12/17 17:41:43;;;;;;;20.58;8.30;;;-6.80;99.90;;;;;;6161707;23;20347;-69
2022/12/17 17:44:14;;;;;;;25.90;7.85;;;-6.80;99.90;;;;;;6161642;23;20005;-69
2022/12/17 17:46:42;;;;;;;20.35;7.03;;;-6.90;99.90;;;;;;6160767;23;20001;-72
2022/12/17 17:49:10;;;;;;;14.18;5.60;;;-6.90;99.90;;;;;;6161043;23;20266;-72
2022/12/17 17:51:40;;;;;;;24.40;7.60;;;-7.00;99.90;;;;;;6161563;23;20073;-69
2022/12/17 17:54:08;;;;;;;24.60;10.25;;;-7.00;99.90;;;;;;6161178;23;20053;-69
2022/12/17 17:56:39;;;;;;;16.55;7.97;;;-7.00;99.90;;;;;;6160805;23;20295;-69
2022/12/17 17:59:17;;;;;;;22.27;7.10;;;-7.00;99.90;;;;;;6160943;23;20056;-69
2022/12/17 18:01:51;;;;;;;19.10;6.65;;;-7.00;99.90;;;;;;6160709;23;20009;-69
2022/12/17 18:04:23;;;;;;;22.27;7.35;;;-7.10;99.90;;;;;;6160715;23;20082;-69
2022/12/17 18:06:51;;;;;;;22.75;7.25;;;-7.10;99.90;;;;;;6160591;23;20005;-69
2022/12/17 18:09:19;;;;;;;45.00;14.57;;;-7.10;99.90;;;;;;6161552;23;20032;-69
2022/12/17 18:11:46;;;;;;;24.52;8.57;;;-7.10;99.90;;;;;;6161281;23;20358;-69
2022/12/17 18:14:13;;;;;;;21.25;8.02;;;-7.00;99.90;;;;;;6160688;23;20005;-69
2022/12/17 18:16:44;;;;;;;19.90;6.95;;;-7.00;99.90;;;;;;6161293;23;20009;-69
2022/12/17 18:19:17;;;;;;;20.70;7.82;;;-6.80;99.90;;;;;;6160544;23;20014;-69
2022/12/17 18:21:45;;;;;;;17.70;7.70;;;-6.80;99.90;;;;;;6160926;23;20129;-69
2022/12/17 18:24:23;;;;;;;20.90;8.43;;;-6.70;99.90;;;;;;6159230;23;20009;-69
2022/12/17 18:26:51;;;;;;;28.15;9.30;;;-6.70;99.90;;;;;;6161104;23;20001;-69
2022/12/17 18:29:22;;;;;;;25.10;7.63;;;-6.70;99.90;;;;;;6160443;23;20080;-69
2022/12/17 18:31:50;;;;;;;19.15;8.00;;;-6.70;99.90;;;;;;6160483;23;20002;-69
2022/12/17 18:34:22;;;;;;;26.40;7.80;;;-6.80;99.90;;;;;;6160395;23;19997;-69
2022/12/17 18:36:50;;;;;;;22.00;8.27;;;-6.80;99.90;;;;;;6161122;23;20009;-69
2022/12/17 18:39:20;;;;;;;19.05;6.68;;;-6.80;99.90;;;;;;6160473;23;20080;-69
2022/12/17 18:44:39;;;;;;;21.75;8.23;;;-6.80;99.90;;;;;;6160590;23;20499;-69
2022/12/17 18:47:07;;;;;;;22.45;8.32;;;-6.80;99.90;;;;;;6158822;23;20379;-69
2022/12/17 18:49:35;;;;;;;19.10;7.07;;;-6.80;99.90;;;;;;6160361;23;20382;-69
2022/12/17 18:52:03;;;;;;;19.85;7.03;;;-6.80;99.90;;;;;;6160602;23;20052;-69
2022/12/17 18:54:33;;;;;;;20.45;7.68;;;-6.80;99.90;;;;;;6160441;23;20052;-69
2022/12/17 18:57:01;;;;;;;18.00;7.85;;;-6.80;99.90;;;;;;6159939;23;20459;-69
2022/12/17 18:59:30;;;;;;;15.27;7.15;;;-6.90;99.90;;;;;;6160272;23;20378;-69
2022/12/17 19:01:58;;;;;;;19.17;6.93;;;-6.90;99.90;;;;;;6160855;23;20005;-69
2022/12/17 19:04:26;;;;;;;20.05;9.63;;;-7.00;99.90;;;;;;6160238;23;20011;-69
2022/12/17 19:06:55;;;;;;;19.40;8.13;;;-7.00;99.90;;;;;;6160704;23;20006;-69
2022/12/17 19:09:28;;;;;;;43.17;14.30;;;-7.10;99.90;;;;;;6158801;23;20005;-72
2022/12/17 19:11:56;;;;;;;32.13;12.18;;;-7.20;99.90;;;;;;6160006;23;20005;-69
2022/12/17 19:14:24;;;;;;;23.15;8.52;;;-7.20;99.90;;;;;;6160299;23;20006;-69
2022/12/17 19:16:53;;;;;;;17.80;7.07;;;-7.30;99.90;;;;;;6160456;23;20319;-69
2022/12/17 19:19:21;;;;;;;33.50;10.18;;;-7.20;99.90;;;;;;6159765;23;20021;-69
2022/12/17 19:21:53;;;;;;;23.38;9.27;;;-7.20;99.90;;;;;;6160380;23;20006;-69
2022/12/17 19:24:23;;;;;;;27.67;9.68;;;-7.20;99.90;;;;;;6160191;23;20375;-69
2022/12/17 19:26:51;;;;;;;25.83;10.25;;;-7.20;99.90;;;;;;6160625;23;20008;-69
2022/12/17 19:29:19;;;;;;;20.42;7.03;;;-7.10;99.90;;;;;;6158701;23;20040;-69
2022/12/17 19:31:47;;;;;;;25.02;8.02;;;-7.10;99.90;;;;;;6160673;23;19997;-69
2022/12/17 19:34:17;;;;;;;20.42;8.10;;;-7.10;99.90;;;;;;6160107;23;19997;-69
2022/12/17 19:36:46;;;;;;;24.25;8.32;;;-7.10;99.90;;;;;;6160670;23;20032;-69
2022/12/17 19:39:17;;;;;;;20.15;6.85;;;-7.10;99.90;;;;;;6160009;23;19997;-69
2022/12/17 19:41:45;;;;;;;13.50;5.78;;;-7.10;99.90;;;;;;6159990;23;20025;-69
2022/12/17 19:44:15;;;;;;;23.63;7.40;;;-7.10;99.90;;;;;;6160580;23;20009;-69
2022/12/17 19:46:44;;;;;;;24.70;8.55;;;-7.10;99.90;;;;;;6159857;23;20001;-69
2022/12/17 19:49:12;;;;;;;20.50;7.45;;;-7.10;99.90;;;;;;6158517;23;20012;-69
2022/12/17 19:51:42;;;;;;;19.35;7.18;;;-7.20;99.90;;;;;;6158591;23;20010;-69
2022/12/17 19:54:12;;;;;;;23.13;8.38;;;-7.20;99.90;;;;;;6160129;23;20313;-69
2022/12/17 19:56:40;;;;;;;19.55;6.50;;;-7.20;99.90;;;;;;6159833;23;20002;-69
2022/12/17 19:59:09;;;;;;;26.92;9.80;;;-7.30;99.90;;;;;;6160137;23;20398;-69
2022/12/17 20:01:42;;;;;;;19.08;6.60;;;-7.30;99.90;;;;;;6160502;23;20005;-69
2022/12/17 20:04:11;;;;;;;32.75;11.90;;;-7.30;99.90;;;;;;6159836;23;20028;-69
2022/12/17 20:06:38;;;;;;;19.58;7.38;;;-7.30;99.90;;;;;;6158427;23;20013;-69
2022/12/17 20:09:06;;;;;;;16.70;6.80;;;-7.40;99.90;;;;;;6159041;23;20040;-69
2022/12/17 20:11:35;;;;;;;19.30;7.65;;;-7.50;99.90;;;;;;6162463;23;20051;-69
2022/12/17 20:14:10;;;;;;;16.05;6.55;;;-7.50;99.90;;;;;;6161837;23;20072;-69
2022/12/17 20:16:43;;;;;;;;;;;-7.60;99.90;;;;;;6162622;23;20008;-69
2022/12/17 20:19:13;;;;;;;13.02;5.65;;;-7.70;99.90;;;;;;6161636;23;19959;-69
2022/12/17 20:21:40;;;;;;;15.05;5.88;;;-7.70;99.90;;;;;;6161775;23;20072;-69
2022/12/17 20:24:09;;;;;;;18.55;6.93;;;-7.70;99.90;;;;;;6161768;23;20006;-70
2022/12/17 20:26:37;;;;;;;14.43;5.60;;;-7.80;99.90;;;;;;6161634;23;20005;-69
2022/12/17 20:29:06;;;;;;;16.90;6.78;;;-7.80;99.90;;;;;;6161880;23;20004;-69
2022/12/17 20:31:34;;;;;;;17.90;6.78;;;-7.80;99.90;;;;;;6161533;23;20001;-69
2022/12/17 20:34:02;;;;;;;17.52;5.72;;;-7.70;99.90;;;;;;6161626;23;20002;-69
2022/12/17 20:36:30;;;;;;;13.85;6.22;;;-7.70;99.90;;;;;;6160243;23;20159;-69
2022/12/17 20:38:57;;;;;;;10.93;5.70;;;-7.70;99.90;;;;;;6161743;23;20002;-69
2022/12/17 20:41:27;;;;;;;13.95;5.32;;;-7.60;99.90;;;;;;6161441;23;20048;-69
2022/12/17 20:43:55;;;;;;;15.25;5.75;;;-7.60;99.90;;;;;;6161497;23;20004;-69
2022/12/17 20:46:24;;;;;;;14.70;5.55;;;-7.60;99.90;;;;;;6160020;23;20025;-70
2022/12/17 20:48:51;;;;;;;18.85;5.82;;;-7.60;99.90;;;;;;6162074;23;20007;-69
2022/12/17 20:51:22;;;;;;;14.18;5.05;;;-7.50;99.90;;;;;;6161300;23;20009;-69
2022/12/17 20:53:51;;;;;;;12.88;5.25;;;-7.50;99.90;;;;;;6161433;23;19997;-69
2022/12/17 20:56:24;;;;;;;16.27;5.97;;;-7.40;99.90;;;;;;6161296;23;20005;-69
2022/12/17 20:59:01;;;;;;;11.93;5.35;;;-7.30;99.90;;;;;;6162223;23;20009;-69
2022/12/17 21:01:31;;;;;;;12.73;4.35;;;-7.20;99.90;;;;;;6161511;23;20010;-69
2022/12/17 21:03:59;;;;;;;14.85;6.30;;;-7.20;99.90;;;;;;6161271;23;20005;-69
2022/12/17 21:06:36;;;;;;;21.00;7.80;;;-7.20;99.90;;;;;;6162022;23;20382;-70
2022/12/17 21:09:05;;;;;;;12.63;4.60;;;-7.10;99.90;;;;;;6161509;23;20005;-70
2022/12/17 21:11:34;;;;;;;15.38;5.20;;;-7.10;99.90;;;;;;6161996;23;20002;-70
2022/12/17 21:14:09;;;;;;;12.90;4.90;;;-7.00;99.90;;;;;;6161349;23;20060;-70
2022/12/17 21:16:38;;;;;;;16.08;6.43;;;-6.90;99.90;;;;;;6161185;23;19997;-69
2022/12/17 21:19:06;;;;;;;14.27;5.60;;;-6.80;99.90;;;;;;6161178;23;20282;-70
2022/12/17 21:21:37;;;;;;;13.13;6.07;;;-6.60;99.90;;;;;;6161044;23;20004;-69
2022/12/17 21:24:05;;;;;;;11.05;5.05;;;-6.50;99.90;;;;;;6161248;23;20270;-70
2022/12/17 21:26:36;;;;;;;13.38;5.03;;;-6.40;99.90;;;;;;6161367;23;20074;-69
2022/12/17 21:29:06;;;;;;;14.98;5.00;;;-6.30;99.90;;;;;;6161309;23;20001;-70
2022/12/17 21:31:44;;;;;;;17.90;6.20;;;-6.30;99.90;;;;;;6161131;23;19998;-70
2022/12/17 21:34:21;;;;;;;12.40;5.53;;;-6.40;99.90;;;;;;6160997;23;20001;-70
2022/12/17 21:36:50;;;;;;;14.07;5.50;;;-6.50;99.90;;;;;;6161355;23;20303;-70
2022/12/17 21:39:22;;;;;;;11.85;5.10;;;-6.50;99.90;;;;;;6159063;23;20085;-70
2022/12/17 21:44:35;;;;;;;10.80;4.73;;;-6.60;99.90;;;;;;6161314;23;20013;-69
2022/12/17 21:47:03;;;;;;;14.93;5.95;;;-6.60;99.90;;;;;;6160778;23;20288;-70
2022/12/17 21:49:32;;;;;;;13.82;5.75;;;-6.70;99.90;;;;;;6160969;23;20002;-69
2022/12/17 21:51:59;;;;;;;14.20;5.53;;;-6.70;99.90;;;;;;6161246;23;20024;-69
2022/12/17 21:54:26;;;;;;;15.02;5.47;;;-6.70;99.90;;;;;;6161470;23;20069;-70
2022/12/17 21:56:54;;;;;;;26.48;10.73;;;-6.70;99.90;;;;;;6160327;23;20009;-69
2022/12/17 21:59:22;;;;;;;37.75;10.90;;;-6.80;99.90;;;;;;6160859;23;20295;-69
2022/12/17 22:01:50;;;;;;;59.40;13.73;;;-6.90;99.90;;;;;;6160722;23;20056;-70
2022/12/17 22:04:18;;;;;;;17.98;7.30;;;-7.00;99.90;;;;;;6160905;23;20002;-70
2022/12/17 22:06:45;;;;;;;39.72;10.50;;;-7.00;99.90;;;;;;6160999;23;20240;-70
2022/12/17 22:09:12;;;;;;;29.13;8.18;;;-7.10;99.90;;;;;;6160758;23;19998;-69
2022/12/17 22:11:40;;;;;;;15.93;5.30;;;-7.10;99.90;;;;;;6161384;23;20002;-69
2022/12/17 22:14:10;;;;;;;19.80;7.57;;;-7.10;99.90;;;;;;6161552;23;20100;-69
2022/12/17 22:16:41;;;;;;;26.15;8.60;;;-7.10;99.90;;;;;;6161356;23;20008;-70
2022/12/17 22:19:15;;;;;;;22.20;9.00;;;-7.10;99.90;;;;;;6158948;23;20021;-69
2022/12/17 22:21:45;;;;;;;23.95;8.90;;;-7.20;99.90;;;;;;6160574;23;19997;-69
2022/12/17 22:24:21;;;;;;;20.33;6.88;;;-7.20;99.90;;;;;;6160765;23;20001;-69
2022/12/17 22:26:48;;;;;;;19.85;6.70;;;-7.30;99.90;;;;;;6161092;23;20385;-70
2022/12/17 22:32:58;;;;;;;22.23;7.57;;;-7.30;99.90;;;;;;6161242;23;20009;-69
2022/12/17 22:34:57;;;;;;;22.67;6.82;;;-7.40;99.90;;;;;;6148611;23;20051;-69
2022/12/17 22:37:24;;;;;;;18.05;6.13;;;-7.50;99.90;;;;;;6160504;23;20129;-69
2022/12/17 22:39:52;;;;;;;33.20;13.02;;;-7.60;99.90;;;;;;6160503;23;20006;-69
2022/12/17 22:45:06;;;;;;;20.10;7.93;;;-7.80;99.90;;;;;;6160803;23;20089;-69
2022/12/17 22:47:34;;;;;;;12.88;5.47;;;-7.90;99.90;;;;;;6160447;23;20001;-69
2022/12/17 22:50:02;;;;;;;12.45;4.32;;;-8.00;99.90;;;;;;6159025;23;20002;-69
2022/12/17 22:52:30;;;;;;;20.58;6.45;;;-8.00;99.90;;;;;;6159047;23;20366;-69
2022/12/17 22:54:57;;;;;;;10.70;4.70;;;-8.10;99.90;;;;;;6158963;23;20002;-69
2022/12/17 22:57:25;;;;;;;14.43;4.75;;;-8.10;99.90;;;;;;6161236;23;20040;-69
2022/12/17 22:59:53;;;;;;;16.65;5.03;;;-8.10;99.90;;;;;;6158929;23;20271;-69
2022/12/17 23:02:20;;;;;;;16.77;5.55;;;-8.20;99.90;;;;;;6160913;23;20421;-69
2022/12/17 23:04:48;;;;;;;15.73;5.43;;;-8.20;99.90;;;;;;6160258;23;20076;-69
2022/12/17 23:07:15;;;;;;;11.27;4.65;;;-8.20;99.90;;;;;;6160358;23;20012;-69
2022/12/17 23:09:42;;;;;;;12.00;4.63;;;-8.40;99.90;;;;;;6160181;23;20001;-69
2022/12/17 23:14:55;;;;;;;8.85;3.75;;;-8.50;99.90;;;;;;6160212;23;20009;-69
2022/12/17 23:17:23;;;;;;;11.68;4.05;;;-8.50;99.90;;;;;;6160169;23;20009;-69
2022/12/17 23:19:51;;;;;;;9.55;4.10;;;-8.50;99.90;;;;;;6159858;23;20071;-69
2022/12/17 23:22:19;;;;;;;19.65;5.05;;;-8.50;99.90;;;;;;6158822;23;20017;-69
2022/12/17 23:24:46;;;;;;;13.20;4.05;;;-8.50;99.90;;;;;;6158793;23;20087;-69
2022/12/17 23:27:14;;;;;;;14.18;5.28;;;-8.50;99.90;;;;;;6160821;23;20229;-69
2022/12/17 23:29:41;;;;;;;10.05;4.13;;;-8.50;99.90;;;;;;6160045;23;20008;-69
2022/12/17 23:32:08;;;;;;;10.90;5.63;;;-8.60;99.90;;;;;;6160294;23;20064;-69
2022/12/17 23:34:36;;;;;;;8.95;4.15;;;-8.60;99.90;;;;;;6160026;23;20004;-69
2022/12/17 23:37:03;;;;;;;14.93;4.90;;;-8.60;99.90;;;;;;6159935;23;20009;-69
2022/12/17 23:39:31;;;;;;;10.70;4.32;;;-8.60;99.90;;;;;;6160532;23;20003;-69
2022/12/17 23:41:58;;;;;;;14.43;4.72;;;-8.60;99.90;;;;;;6159963;23;20012;-69
2022/12/17 23:44:26;;;;;;;9.88;4.07;;;-8.70;99.90;;;;;;6160620;23;20386;-69
2022/12/17 23:46:53;;;;;;;9.75;4.60;;;-8.70;99.90;;;;;;6159859;23;20438;-69
2022/12/17 23:49:21;;;;;;;16.10;5.32;;;-8.80;99.90;;;;;;6160031;23;20028;-69
2022/12/17 23:51:48;;;;;;;12.52;5.38;;;-8.80;99.90;;;;;;6160590;23;20355;-69
2022/12/17 23:54:15;;;;;;;12.68;4.85;;;-8.80;99.90;;;;;;6160624;23;20001;-69
2022/12/17 23:56:44;;;;;;;10.52;4.85;;;-8.80;99.90;;;;;;6159900;23;20437;-69
2022/12/17 23:59:11;;;;;;;10.27;4.15;;;-8.90;99.90;;;;;;6160125;23;20025;-69
